sensor_id;sensor_type;location;lat;lon;timestamp;temperature;humidity
15578;DHT22;17667;45.598;5.214;2023-04-06T06:39:43;5.00;92.00
15578;DHT22;17667;45.598;5.214;2023-04-06T06:42:32;5.30;91.10
15578;DHT22;17667;45.598;5.214;2023-04-06T06:45:40;5.50;90.30
15578;DHT22;17667;45.598;5.214;2023-04-06T06:48:28;5.60;89.80
15578;DHT22;17667;45.598;5.214;2023-04-06T06:51:15;5.80;89.90
15578;DHT22;17667;45.598;5.214;2023-04-06T06:54:03;5.80;87.10
15578;DHT22;17667;45.598;5.214;2023-04-06T06:56:52;5.90;87.00
15578;DHT22;17667;45.598;5.214;2023-04-06T06:59:40;6.10;85.20
15578;DHT22;17667;45.598;5.214;2023-04-06T07:02:28;6.30;84.50
15578;DHT22;17667;45.598;5.214;2023-04-06T07:05:16;6.50;85.00
15578;DHT22;17667;45.598;5.214;2023-04-06T07:08:12;6.70;82.70
15578;DHT22;17667;45.598;5.214;2023-04-06T07:11:00;6.90;83.10
15578;DHT22;17667;45.598;5.214;2023-04-06T07:13:49;7.40;82.50
15578;DHT22;17667;45.598;5.214;2023-04-06T07:16:37;7.80;81.00
15578;DHT22;17667;45.598;5.214;2023-04-06T07:19:25;7.90;78.40
15578;DHT22;17667;45.598;5.214;2023-04-06T07:22:13;7.80;76.30
15578;DHT22;17667;45.598;5.214;2023-04-06T07:25:01;8.00;77.30
15578;DHT22;17667;45.598;5.214;2023-04-06T07:27:49;7.80;75.80
15578;DHT22;17667;45.598;5.214;2023-04-06T07:30:39;7.70;75.70
15578;DHT22;17667;45.598;5.214;2023-04-06T07:33:29;8.20;76.60
15578;DHT22;17667;45.598;5.214;2023-04-06T07:36:17;8.20;74.70
15578;DHT22;17667;45.598;5.214;2023-04-06T07:39:06;8.60;74.60
15578;DHT22;17667;45.598;5.214;2023-04-06T07:41:54;8.90;72.30
15578;DHT22;17667;45.598;5.214;2023-04-06T07:44:42;9.00;70.60
15578;DHT22;17667;45.598;5.214;2023-04-06T07:47:32;8.80;71.50
15578;DHT22;17667;45.598;5.214;2023-04-06T07:50:20;8.80;72.40
15578;DHT22;17667;45.598;5.214;2023-04-06T07:53:08;9.20;70.30
15578;DHT22;17667;45.598;5.214;2023-04-06T07:55:58;9.20;70.20
15578;DHT22;17667;45.598;5.214;2023-04-06T07:58:46;9.60;68.50
15578;DHT22;17667;45.598;5.214;2023-04-06T08:01:34;9.80;68.20
15578;DHT22;17667;45.598;5.214;2023-04-06T08:04:23;9.70;65.70
15578;DHT22;17667;45.598;5.214;2023-04-06T08:07:11;10.20;67.60
15578;DHT22;17667;45.598;5.214;2023-04-06T08:09:58;10.50;65.20
15578;DHT22;17667;45.598;5.214;2023-04-06T08:12:46;10.80;63.40
15578;DHT22;17667;45.598;5.214;2023-04-06T08:15:34;10.70;62.50
15578;DHT22;17667;45.598;5.214;2023-04-06T08:18:21;10.70;63.30
15578;DHT22;17667;45.598;5.214;2023-04-06T08:21:11;11.30;62.40
15578;DHT22;17667;45.598;5.214;2023-04-06T08:23:58;11.80;59.50
15578;DHT22;17667;45.598;5.214;2023-04-06T08:26:46;12.00;58.30
15578;DHT22;17667;45.598;5.214;2023-04-06T08:29:33;12.40;56.80
15578;DHT22;17667;45.598;5.214;2023-04-06T08:32:21;12.70;55.80
15578;DHT22;17667;45.598;5.214;2023-04-06T08:35:09;13.20;54.20
15578;DHT22;17667;45.598;5.214;2023-04-06T08:37:58;13.40;53.70
15578;DHT22;17667;45.598;5.214;2023-04-06T08:40:46;13.60;52.00
15578;DHT22;17667;45.598;5.214;2023-04-06T08:43:41;14.10;52.30
15578;DHT22;17667;45.598;5.214;2023-04-06T08:46:31;14.70;51.50
15578;DHT22;17667;45.598;5.214;2023-04-06T08:49:19;15.50;50.50
15578;DHT22;17667;45.598;5.214;2023-04-06T08:52:07;14.50;48.80
15578;DHT22;17667;45.598;5.214;2023-04-06T08:54:56;15.50;49.70
15578;DHT22;17667;45.598;5.214;2023-04-06T08:57:45;16.40;47.30
15578;DHT22;17667;45.598;5.214;2023-04-06T09:00:37;17.40;44.00
15578;DHT22;17667;45.598;5.214;2023-04-06T09:03:26;17.50;42.60
15578;DHT22;17667;45.598;5.214;2023-04-06T09:06:14;16.40;44.80
15578;DHT22;17667;45.598;5.214;2023-04-06T09:09:02;18.10;44.20
15578;DHT22;17667;45.598;5.214;2023-04-06T09:11:51;19.50;41.70
15578;DHT22;17667;45.598;5.214;2023-04-06T09:14:39;18.60;40.50
15578;DHT22;17667;45.598;5.214;2023-04-06T09:17:28;19.70;39.70
15578;DHT22;17667;45.598;5.214;2023-04-06T09:20:22;19.30;38.20
15578;DHT22;17667;45.598;5.214;2023-04-06T09:23:18;19.40;36.80
15578;DHT22;17667;45.598;5.214;2023-04-06T09:26:10;20.10;37.60
15578;DHT22;17667;45.598;5.214;2023-04-06T09:29:00;20.40;36.30
15578;DHT22;17667;45.598;5.214;2023-04-06T09:31:49;21.20;36.90
15578;DHT22;17667;45.598;5.214;2023-04-06T09:34:37;22.80;35.60
15578;DHT22;17667;45.598;5.214;2023-04-06T09:37:28;23.40;33.50
15578;DHT22;17667;45.598;5.214;2023-04-06T09:40:15;23.60;32.80
15578;DHT22;17667;45.598;5.214;2023-04-06T09:43:04;25.40;31.40
15578;DHT22;17667;45.598;5.214;2023-04-06T09:45:55;24.40;29.50
15578;DHT22;17667;45.598;5.214;2023-04-06T09:48:43;24.30;31.20
15578;DHT22;17667;45.598;5.214;2023-04-06T09:51:36;24.00;31.60
15578;DHT22;17667;45.598;5.214;2023-04-06T09:57:23;25.70;29.40
15578;DHT22;17667;45.598;5.214;2023-04-06T10:00:14;25.40;29.00
15578;DHT22;17667;45.598;5.214;2023-04-06T10:03:12;28.00;29.40
15578;DHT22;17667;45.598;5.214;2023-04-06T10:06:04;28.30;26.90
15578;DHT22;17667;45.598;5.214;2023-04-06T10:11:41;29.00;25.50
15578;DHT22;17667;45.598;5.214;2023-04-06T10:14:31;28.60;25.10
15578;DHT22;17667;45.598;5.214;2023-04-06T10:17:18;25.20;30.30
15578;DHT22;17667;45.598;5.214;2023-04-06T10:20:11;27.30;28.20
15578;DHT22;17667;45.598;5.214;2023-04-06T10:23:05;26.90;27.30
15578;DHT22;17667;45.598;5.214;2023-04-06T10:25:54;27.30;28.70
15578;DHT22;17667;45.598;5.214;2023-04-06T10:28:43;29.20;27.60
15578;DHT22;17667;45.598;5.214;2023-04-06T10:31:31;31.20;25.50
15578;DHT22;17667;45.598;5.214;2023-04-06T10:34:18;31.50;24.50
15578;DHT22;17667;45.598;5.214;2023-04-06T10:40:18;33.50;22.70
15578;DHT22;17667;45.598;5.214;2023-04-06T10:43:10;34.20;23.60
15578;DHT22;17667;45.598;5.214;2023-04-06T10:46:00;31.40;24.00
15578;DHT22;17667;45.598;5.214;2023-04-06T10:48:48;31.70;23.20
15578;DHT22;17667;45.598;5.214;2023-04-06T10:54:27;28.70;23.60
15578;DHT22;17667;45.598;5.214;2023-04-06T10:57:16;28.90;25.80
15578;DHT22;17667;45.598;5.214;2023-04-06T11:00:15;31.00;24.80
15578;DHT22;17667;45.598;5.214;2023-04-06T11:03:03;32.90;24.40
15578;DHT22;17667;45.598;5.214;2023-04-06T11:05:51;33.80;21.90
15578;DHT22;17667;45.598;5.214;2023-04-06T11:08:39;35.30;23.00
15578;DHT22;17667;45.598;5.214;2023-04-06T11:11:28;34.10;21.50
15578;DHT22;17667;45.598;5.214;2023-04-06T11:14:15;34.60;21.80
15578;DHT22;17667;45.598;5.214;2023-04-06T11:17:03;36.10;22.30
15578;DHT22;17667;45.598;5.214;2023-04-06T11:19:51;36.60;22.90
15578;DHT22;17667;45.598;5.214;2023-04-06T11:22:48;34.70;21.50
15578;DHT22;17667;45.598;5.214;2023-04-06T11:25:36;35.10;22.40
15578;DHT22;17667;45.598;5.214;2023-04-06T11:28:25;34.60;20.60
15578;DHT22;17667;45.598;5.214;2023-04-06T11:31:12;37.00;26.50
15578;DHT22;17667;45.598;5.214;2023-04-06T11:34:00;34.30;23.80
15578;DHT22;17667;45.598;5.214;2023-04-06T11:36:49;34.30;22.50
15578;DHT22;17667;45.598;5.214;2023-04-06T11:42:30;35.40;28.70
15578;DHT22;17667;45.598;5.214;2023-04-06T11:45:19;33.90;21.00
15578;DHT22;17667;45.598;5.214;2023-04-06T11:48:18;32.80;24.20
15578;DHT22;17667;45.598;5.214;2023-04-06T11:51:05;33.20;22.40
15578;DHT22;17667;45.598;5.214;2023-04-06T11:53:53;34.50;22.60
15578;DHT22;17667;45.598;5.214;2023-04-06T11:56:42;36.10;22.20
15578;DHT22;17667;45.598;5.214;2023-04-06T11:59:33;35.00;21.40
15578;DHT22;17667;45.598;5.214;2023-04-06T12:02:22;34.70;21.80
15578;DHT22;17667;45.598;5.214;2023-04-06T12:05:10;34.70;22.20
15578;DHT22;17667;45.598;5.214;2023-04-06T12:07:58;34.30;21.40
15578;DHT22;17667;45.598;5.214;2023-04-06T12:10:46;34.80;21.80
15578;DHT22;17667;45.598;5.214;2023-04-06T12:13:33;36.10;21.90
15578;DHT22;17667;45.598;5.214;2023-04-06T12:16:21;35.70;21.60
15578;DHT22;17667;45.598;5.214;2023-04-06T12:19:10;34.90;22.50
15578;DHT22;17667;45.598;5.214;2023-04-06T12:21:58;32.90;22.50
15578;DHT22;17667;45.598;5.214;2023-04-06T12:24:46;31.90;23.60
15578;DHT22;17667;45.598;5.214;2023-04-06T12:27:34;30.80;23.10
15578;DHT22;17667;45.598;5.214;2023-04-06T12:30:22;28.30;24.90
15578;DHT22;17667;45.598;5.214;2023-04-06T12:33:09;27.70;26.50
15578;DHT22;17667;45.598;5.214;2023-04-06T12:35:58;25.70;25.70
15578;DHT22;17667;45.598;5.214;2023-04-06T12:38:47;25.60;27.80
15578;DHT22;17667;45.598;5.214;2023-04-06T12:41:35;27.30;28.20
15578;DHT22;17667;45.598;5.214;2023-04-06T12:44:22;33.80;22.40
15578;DHT22;17667;45.598;5.214;2023-04-06T12:47:11;34.70;21.70
15578;DHT22;17667;45.598;5.214;2023-04-06T12:49:59;33.60;20.20
15578;DHT22;17667;45.598;5.214;2023-04-06T12:52:48;32.30;21.90
15578;DHT22;17667;45.598;5.214;2023-04-06T12:55:36;30.80;21.50
15578;DHT22;17667;45.598;5.214;2023-04-06T12:58:24;28.60;22.80
15578;DHT22;17667;45.598;5.214;2023-04-06T13:01:13;29.40;22.90
15578;DHT22;17667;45.598;5.214;2023-04-06T13:04:01;29.40;23.50
15578;DHT22;17667;45.598;5.214;2023-04-06T13:06:51;31.00;21.70
15578;DHT22;17667;45.598;5.214;2023-04-06T13:09:40;30.70;20.90
15578;DHT22;17667;45.598;5.214;2023-04-06T13:12:28;31.80;21.30
15578;DHT22;17667;45.598;5.214;2023-04-06T13:15:16;33.40;20.40
15578;DHT22;17667;45.598;5.214;2023-04-06T13:18:04;34.10;20.10
15578;DHT22;17667;45.598;5.214;2023-04-06T13:20:52;33.10;19.50
15578;DHT22;17667;45.598;5.214;2023-04-06T13:23:42;32.70;20.80
15578;DHT22;17667;45.598;5.214;2023-04-06T13:26:31;28.30;22.00
15578;DHT22;17667;45.598;5.214;2023-04-06T13:29:18;26.10;24.40
15578;DHT22;17667;45.598;5.214;2023-04-06T13:32:06;25.50;23.40
15578;DHT22;17667;45.598;5.214;2023-04-06T13:34:56;25.80;23.60
15578;DHT22;17667;45.598;5.214;2023-04-06T13:37:44;25.90;24.90
15578;DHT22;17667;45.598;5.214;2023-04-06T13:40:32;25.60;23.00
15578;DHT22;17667;45.598;5.214;2023-04-06T13:43:21;25.70;23.20
15578;DHT22;17667;45.598;5.214;2023-04-06T13:46:08;28.00;22.90
15578;DHT22;17667;45.598;5.214;2023-04-06T13:48:56;29.30;22.70
15578;DHT22;17667;45.598;5.214;2023-04-06T13:51:44;28.50;21.20
15578;DHT22;17667;45.598;5.214;2023-04-06T13:54:31;27.20;22.10
15578;DHT22;17667;45.598;5.214;2023-04-06T13:57:19;26.80;22.30
15578;DHT22;17667;45.598;5.214;2023-04-06T14:00:10;27.50;21.60
15578;DHT22;17667;45.598;5.214;2023-04-06T14:02:59;26.70;22.00
15578;DHT22;17667;45.598;5.214;2023-04-06T14:05:46;28.80;22.20
15578;DHT22;17667;45.598;5.214;2023-04-06T14:08:34;29.90;20.50
15578;DHT22;17667;45.598;5.214;2023-04-06T14:11:22;30.20;20.10
15578;DHT22;17667;45.598;5.214;2023-04-06T14:14:09;28.60;21.70
15578;DHT22;17667;45.598;5.214;2023-04-06T14:16:59;25.90;22.10
15578;DHT22;17667;45.598;5.214;2023-04-06T14:19:47;24.90;23.70
15578;DHT22;17667;45.598;5.214;2023-04-06T14:22:36;24.80;24.80
15578;DHT22;17667;45.598;5.214;2023-04-06T14:25:24;23.90;37.20
15578;DHT22;17667;45.598;5.214;2023-04-06T14:28:12;23.40;28.30
15578;DHT22;17667;45.598;5.214;2023-04-06T14:31:00;23.00;24.20
15578;DHT22;17667;45.598;5.214;2023-04-06T14:33:50;23.00;24.50
15578;DHT22;17667;45.598;5.214;2023-04-06T14:36:38;23.30;23.80
15578;DHT22;17667;45.598;5.214;2023-04-06T14:39:25;23.80;22.50
15578;DHT22;17667;45.598;5.214;2023-04-06T14:42:13;24.20;22.80
15578;DHT22;17667;45.598;5.214;2023-04-06T14:45:01;28.00;21.30
15578;DHT22;17667;45.598;5.214;2023-04-06T14:47:49;29.60;18.50
15578;DHT22;17667;45.598;5.214;2023-04-06T14:50:38;31.40;19.30
15578;DHT22;17667;45.598;5.214;2023-04-06T14:53:26;30.80;19.30
15578;DHT22;17667;45.598;5.214;2023-04-06T14:56:19;26.70;20.60
15578;DHT22;17667;45.598;5.214;2023-04-06T14:59:07;23.90;22.70
15578;DHT22;17667;45.598;5.214;2023-04-06T15:01:55;23.20;24.00
15578;DHT22;17667;45.598;5.214;2023-04-06T15:04:43;22.60;23.80
15578;DHT22;17667;45.598;5.214;2023-04-06T15:07:32;21.80;24.00
15578;DHT22;17667;45.598;5.214;2023-04-06T15:10:19;21.60;24.50
15578;DHT22;17667;45.598;5.214;2023-04-06T15:13:07;21.30;24.80
15578;DHT22;17667;45.598;5.214;2023-04-06T15:15:55;21.40;25.60
15578;DHT22;17667;45.598;5.214;2023-04-06T15:18:42;20.90;25.40
15578;DHT22;17667;45.598;5.214;2023-04-06T15:21:30;20.70;25.30
15578;DHT22;17667;45.598;5.214;2023-04-06T15:24:22;20.50;25.50
15578;DHT22;17667;45.598;5.214;2023-04-06T15:27:09;20.40;25.10
15578;DHT22;17667;45.598;5.214;2023-04-06T15:29:57;20.30;25.10
15578;DHT22;17667;45.598;5.214;2023-04-06T15:32:52;19.40;24.90
15578;DHT22;17667;45.598;5.214;2023-04-06T15:35:40;19.20;25.30
15578;DHT22;17667;45.598;5.214;2023-04-06T15:38:28;18.90;26.00
15578;DHT22;17667;45.598;5.214;2023-04-06T15:41:18;18.50;25.90
15578;DHT22;17667;45.598;5.214;2023-04-06T15:44:06;18.70;26.40
15578;DHT22;17667;45.598;5.214;2023-04-06T15:46:54;18.80;26.60
15578;DHT22;17667;45.598;5.214;2023-04-06T15:49:42;18.70;26.50
15578;DHT22;17667;45.598;5.214;2023-04-06T15:52:30;18.60;26.80
15578;DHT22;17667;45.598;5.214;2023-04-06T15:55:17;18.30;26.60
15578;DHT22;17667;45.598;5.214;2023-04-06T15:58:06;18.50;27.20
15578;DHT22;17667;45.598;5.214;2023-04-06T16:00:54;18.40;26.70
15578;DHT22;17667;45.598;5.214;2023-04-06T16:03:41;18.30;26.50
15578;DHT22;17667;45.598;5.214;2023-04-06T16:06:29;18.50;26.70
15578;DHT22;17667;45.598;5.214;2023-04-06T16:09:17;18.60;27.10
15578;DHT22;17667;45.598;5.214;2023-04-06T16:12:05;19.00;26.80
15578;DHT22;17667;45.598;5.214;2023-04-06T16:14:55;18.80;26.30
15578;DHT22;17667;45.598;5.214;2023-04-06T16:17:42;18.50;26.90
15578;DHT22;17667;45.598;5.214;2023-04-06T16:20:31;18.10;27.40
15578;DHT22;17667;45.598;5.214;2023-04-06T16:23:18;17.90;27.70
15578;DHT22;17667;45.598;5.214;2023-04-06T16:26:10;18.10;27.90
15578;DHT22;17667;45.598;5.214;2023-04-06T16:28:58;18.00;27.80
15578;DHT22;17667;45.598;5.214;2023-04-06T16:31:47;18.00;27.60
15578;DHT22;17667;45.598;5.214;2023-04-06T16:34:35;17.70;27.70
15578;DHT22;17667;45.598;5.214;2023-04-06T16:37:25;17.50;27.30
15578;DHT22;17667;45.598;5.214;2023-04-06T16:40:15;17.40;27.80
15578;DHT22;17667;45.598;5.214;2023-04-06T16:43:02;17.30;27.30
15578;DHT22;17667;45.598;5.214;2023-04-06T16:45:51;17.20;28.20
15578;DHT22;17667;45.598;5.214;2023-04-06T16:48:40;17.00;28.70
15578;DHT22;17667;45.598;5.214;2023-04-06T16:51:28;16.80;29.80
15578;DHT22;17667;45.598;5.214;2023-04-06T16:54:17;16.90;29.10
15578;DHT22;17667;45.598;5.214;2023-04-06T16:57:05;17.60;28.40
15578;DHT22;17667;45.598;5.214;2023-04-06T16:59:53;17.40;27.70
15578;DHT22;17667;45.598;5.214;2023-04-06T17:02:40;16.90;28.30
15578;DHT22;17667;45.598;5.214;2023-04-06T17:05:30;16.70;28.90
15578;DHT22;17667;45.598;5.214;2023-04-06T17:08:19;16.40;29.80
15578;DHT22;17667;45.598;5.214;2023-04-06T17:11:11;16.30;30.00
15578;DHT22;17667;45.598;5.214;2023-04-06T17:13:59;16.30;30.10
15578;DHT22;17667;45.598;5.214;2023-04-06T17:16:47;16.10;30.90
15578;DHT22;17667;45.598;5.214;2023-04-06T17:19:35;16.00;31.10
15578;DHT22;17667;45.598;5.214;2023-04-06T17:22:24;15.90;31.70
15578;DHT22;17667;45.598;5.214;2023-04-06T17:25:12;15.90;31.70
15578;DHT22;17667;45.598;5.214;2023-04-06T17:28:00;15.90;32.20
15578;DHT22;17667;45.598;5.214;2023-04-06T17:30:47;15.80;32.50
15578;DHT22;17667;45.598;5.214;2023-04-06T17:33:36;15.80;32.70
15578;DHT22;17667;45.598;5.214;2023-04-06T17:36:24;15.70;31.80
15578;DHT22;17667;45.598;5.214;2023-04-06T17:39:14;15.60;32.30
15578;DHT22;17667;45.598;5.214;2023-04-06T17:42:03;15.50;32.20
15578;DHT22;17667;45.598;5.214;2023-04-06T17:44:51;15.30;32.70
15578;DHT22;17667;45.598;5.214;2023-04-06T17:47:39;15.10;34.10
15578;DHT22;17667;45.598;5.214;2023-04-06T17:50:26;14.90;34.40
15578;DHT22;17667;45.598;5.214;2023-04-06T17:53:14;14.80;34.50
15578;DHT22;17667;45.598;5.214;2023-04-06T17:56:08;14.70;35.40
15578;DHT22;17667;45.598;5.214;2023-04-06T17:58:56;14.60;35.10
15578;DHT22;17667;45.598;5.214;2023-04-06T18:01:44;14.50;35.60
15578;DHT22;17667;45.598;5.214;2023-04-06T18:04:31;14.40;35.70
15578;DHT22;17667;45.598;5.214;2023-04-06T18:07:19;14.50;35.70
15578;DHT22;17667;45.598;5.214;2023-04-06T18:10:08;14.50;36.20
15578;DHT22;17667;45.598;5.214;2023-04-06T18:12:57;14.50;36.40
15578;DHT22;17667;45.598;5.214;2023-04-06T18:15:46;14.50;35.80
15578;DHT22;17667;45.598;5.214;2023-04-06T18:18:34;14.50;36.10
15578;DHT22;17667;45.598;5.214;2023-04-06T18:21:23;14.40;36.50
15578;DHT22;17667;45.598;5.214;2023-04-06T18:24:12;14.40;37.00
15578;DHT22;17667;45.598;5.214;2023-04-06T18:27:08;14.30;37.00
15578;DHT22;17667;45.598;5.214;2023-04-06T18:29:57;14.30;37.80
15578;DHT22;17667;45.598;5.214;2023-04-06T18:32:46;14.30;36.50
15578;DHT22;17667;45.598;5.214;2023-04-06T18:35:34;14.30;37.20
15578;DHT22;17667;45.598;5.214;2023-04-06T18:38:22;14.40;37.40
15578;DHT22;17667;45.598;5.214;2023-04-06T18:41:09;14.30;37.80
15578;DHT22;17667;45.598;5.214;2023-04-06T18:43:57;14.30;39.60
15578;DHT22;17667;45.598;5.214;2023-04-06T18:46:46;14.20;39.50
15578;DHT22;17667;45.598;5.214;2023-04-06T18:49:34;14.10;39.50
15578;DHT22;17667;45.598;5.214;2023-04-06T18:52:21;14.00;39.10
15578;DHT22;17667;45.598;5.214;2023-04-06T18:55:09;14.00;38.90
15578;DHT22;17667;45.598;5.214;2023-04-06T18:57:57;14.00;38.70
15578;DHT22;17667;45.598;5.214;2023-04-06T19:00:44;13.90;39.00
15578;DHT22;17667;45.598;5.214;2023-04-06T19:03:33;14.00;39.10
15578;DHT22;17667;45.598;5.214;2023-04-06T19:06:22;14.00;39.00
15578;DHT22;17667;45.598;5.214;2023-04-06T19:09:10;14.00;38.80
15578;DHT22;17667;45.598;5.214;2023-04-06T19:11:57;14.00;38.60
15578;DHT22;17667;45.598;5.214;2023-04-06T19:14:45;14.00;38.90
15578;DHT22;17667;45.598;5.214;2023-04-06T19:17:37;13.90;39.20
15578;DHT22;17667;45.598;5.214;2023-04-06T19:20:26;13.90;40.00
15578;DHT22;17667;45.598;5.214;2023-04-06T19:23:13;13.80;39.60
15578;DHT22;17667;45.598;5.214;2023-04-06T19:26:01;13.80;39.60
15578;DHT22;17667;45.598;5.214;2023-04-06T19:28:49;13.80;39.10
15578;DHT22;17667;45.598;5.214;2023-04-06T19:31:37;13.80;39.50
15578;DHT22;17667;45.598;5.214;2023-04-06T19:34:25;13.70;39.10
15578;DHT22;17667;45.598;5.214;2023-04-06T19:37:15;13.70;39.60
15578;DHT22;17667;45.598;5.214;2023-04-06T19:40:03;13.60;40.20
15578;DHT22;17667;45.598;5.214;2023-04-06T19:42:52;13.50;40.70
15578;DHT22;17667;45.598;5.214;2023-04-06T19:45:40;13.50;40.70
15578;DHT22;17667;45.598;5.214;2023-04-06T19:48:28;13.40;41.10
15578;DHT22;17667;45.598;5.214;2023-04-06T19:51:16;13.30;41.10
15578;DHT22;17667;45.598;5.214;2023-04-06T19:54:06;13.20;42.10
15578;DHT22;17667;45.598;5.214;2023-04-06T19:56:53;13.20;41.90
15578;DHT22;17667;45.598;5.214;2023-04-06T19:59:41;13.20;41.50
15578;DHT22;17667;45.598;5.214;2023-04-06T20:02:29;13.20;41.60
15578;DHT22;17667;45.598;5.214;2023-04-06T20:05:16;13.10;41.20
15578;DHT22;17667;45.598;5.214;2023-04-06T20:08:05;13.10;41.30
15578;DHT22;17667;45.598;5.214;2023-04-06T20:10:59;13.00;42.00
15578;DHT22;17667;45.598;5.214;2023-04-06T20:13:47;12.80;43.00
15578;DHT22;17667;45.598;5.214;2023-04-06T20:16:34;12.70;44.00
15578;DHT22;17667;45.598;5.214;2023-04-06T20:19:22;12.40;46.30
15578;DHT22;17667;45.598;5.214;2023-04-06T20:22:10;12.30;44.70
15578;DHT22;17667;45.598;5.214;2023-04-06T20:24:57;12.30;45.50
15578;DHT22;17667;45.598;5.214;2023-04-06T20:27:47;12.30;44.90
15578;DHT22;17667;45.598;5.214;2023-04-06T20:30:34;12.30;45.90
15578;DHT22;17667;45.598;5.214;2023-04-06T20:33:22;12.30;45.80
15578;DHT22;17667;45.598;5.214;2023-04-06T20:36:09;12.20;46.00
15578;DHT22;17667;45.598;5.214;2023-04-06T20:38:58;12.00;46.20
15578;DHT22;17667;45.598;5.214;2023-04-06T20:41:45;11.90;46.20
15578;DHT22;17667;45.598;5.214;2023-04-06T20:44:34;11.90;46.30
15578;DHT22;17667;45.598;5.214;2023-04-06T20:47:22;11.80;45.40
15578;DHT22;17667;45.598;5.214;2023-04-06T20:50:10;11.70;45.20
15578;DHT22;17667;45.598;5.214;2023-04-06T20:52:58;11.50;45.50
15578;DHT22;17667;45.598;5.214;2023-04-06T20:55:46;11.40;45.40
15578;DHT22;17667;45.598;5.214;2023-04-06T20:58:34;11.30;45.70
15578;DHT22;17667;45.598;5.214;2023-04-06T21:01:23;11.10;45.50
15578;DHT22;17667;45.598;5.214;2023-04-06T21:04:10;10.90;47.00
15578;DHT22;17667;45.598;5.214;2023-04-06T21:06:58;10.60;47.20
15578;DHT22;17667;45.598;5.214;2023-04-06T21:09:46;10.50;47.70
15578;DHT22;17667;45.598;5.214;2023-04-06T21:12:33;10.40;47.70
15578;DHT22;17667;45.598;5.214;2023-04-06T21:15:21;10.30;48.20
15578;DHT22;17667;45.598;5.214;2023-04-06T21:18:10;10.30;49.70
15578;DHT22;17667;45.598;5.214;2023-04-06T21:20:58;10.20;50.00
15578;DHT22;17667;45.598;5.214;2023-04-06T21:23:45;10.10;50.60
15578;DHT22;17667;45.598;5.214;2023-04-06T21:26:34;9.90;51.60
15578;DHT22;17667;45.598;5.214;2023-04-06T21:29:22;9.80;51.60
15578;DHT22;17667;45.598;5.214;2023-04-06T21:32:09;9.70;52.10
15578;DHT22;17667;45.598;5.214;2023-04-06T21:34:58;9.60;53.20
15578;DHT22;17667;45.598;5.214;2023-04-06T21:37:46;9.50;53.90
15578;DHT22;17667;45.598;5.214;2023-04-06T21:40:34;9.40;54.30
15578;DHT22;17667;45.598;5.214;2023-04-06T21:43:21;9.50;55.50
15578;DHT22;17667;45.598;5.214;2023-04-06T21:46:09;9.50;55.20
15578;DHT22;17667;45.598;5.214;2023-04-06T21:48:57;9.40;55.20
15578;DHT22;17667;45.598;5.214;2023-04-06T21:51:46;9.30;56.50
15578;DHT22;17667;45.598;5.214;2023-04-06T21:54:33;9.20;56.30
15578;DHT22;17667;45.598;5.214;2023-04-06T21:57:21;9.10;57.40
15578;DHT22;17667;45.598;5.214;2023-04-06T22:00:09;9.00;57.10
15578;DHT22;17667;45.598;5.214;2023-04-06T22:03:00;8.80;57.60
15578;DHT22;17667;45.598;5.214;2023-04-06T22:05:48;8.80;58.70
15578;DHT22;17667;45.598;5.214;2023-04-06T22:08:37;8.80;57.90
15578;DHT22;17667;45.598;5.214;2023-04-06T22:11:25;8.70;58.00
15578;DHT22;17667;45.598;5.214;2023-04-06T22:14:13;8.60;59.10
15578;DHT22;17667;45.598;5.214;2023-04-06T22:17:00;8.50;58.10
15578;DHT22;17667;45.598;5.214;2023-04-06T22:19:48;8.50;58.80
15578;DHT22;17667;45.598;5.214;2023-04-06T22:22:39;8.40;59.00
15578;DHT22;17667;45.598;5.214;2023-04-06T22:25:28;8.40;58.90
15578;DHT22;17667;45.598;5.214;2023-04-06T22:28:16;8.40;59.40
15578;DHT22;17667;45.598;5.214;2023-04-06T22:31:03;8.30;60.00
15578;DHT22;17667;45.598;5.214;2023-04-06T22:33:51;8.40;60.00
15578;DHT22;17667;45.598;5.214;2023-04-06T22:36:38;8.40;59.00
15578;DHT22;17667;45.598;5.214;2023-04-06T22:39:26;8.30;59.50
15578;DHT22;17667;45.598;5.214;2023-04-06T22:42:15;8.30;59.40
15578;DHT22;17667;45.598;5.214;2023-04-06T22:45:04;8.30;60.00
15578;DHT22;17667;45.598;5.214;2023-04-06T22:47:52;8.10;60.60
15578;DHT22;17667;45.598;5.214;2023-04-06T22:50:39;8.00;60.90
15578;DHT22;17667;45.598;5.214;2023-04-06T22:53:27;8.00;61.80
15578;DHT22;17667;45.598;5.214;2023-04-06T22:56:15;8.00;61.80
15578;DHT22;17667;45.598;5.214;2023-04-06T22:59:04;7.90;61.10
15578;DHT22;17667;45.598;5.214;2023-04-06T23:01:51;7.80;61.20
15578;DHT22;17667;45.598;5.214;2023-04-06T23:04:39;7.70;62.00
15578;DHT22;17667;45.598;5.214;2023-04-06T23:07:27;7.60;61.50
15578;DHT22;17667;45.598;5.214;2023-04-06T23:10:14;7.60;61.80
15578;DHT22;17667;45.598;5.214;2023-04-06T23:13:02;7.60;62.00
15578;DHT22;17667;45.598;5.214;2023-04-06T23:15:51;7.50;61.50
15578;DHT22;17667;45.598;5.214;2023-04-06T23:18:39;7.50;62.40
15578;DHT22;17667;45.598;5.214;2023-04-06T23:21:26;7.50;63.60
15578;DHT22;17667;45.598;5.214;2023-04-06T23:24:14;7.50;63.30
15578;DHT22;17667;45.598;5.214;2023-04-06T23:27:02;7.40;63.50
15578;DHT22;17667;45.598;5.214;2023-04-06T23:29:49;7.40;63.80
15578;DHT22;17667;45.598;5.214;2023-04-06T23:32:38;7.50;64.40
15578;DHT22;17667;45.598;5.214;2023-04-06T23:35:26;7.70;65.00
15578;DHT22;17667;45.598;5.214;2023-04-06T23:38:14;7.60;64.40
15578;DHT22;17667;45.598;5.214;2023-04-06T23:41:02;7.50;64.30
15578;DHT22;17667;45.598;5.214;2023-04-06T23:43:50;7.50;64.50
15578;DHT22;17667;45.598;5.214;2023-04-06T23:46:37;7.40;64.90
15578;DHT22;17667;45.598;5.214;2023-04-06T23:49:26;7.30;65.00
15578;DHT22;17667;45.598;5.214;2023-04-06T23:52:14;7.20;64.80
15578;DHT22;17667;45.598;5.214;2023-04-06T23:55:01;7.30;66.00
15578;DHT22;17667;45.598;5.214;2023-04-06T23:57:50;7.30;66.10
